Frisium — PHYQ — position and weather

sailwx.info

Track history (hours):
 
Tides and Currents Weather Stations Pressure Air Temp Water Temp Dewpoint Dewpoint Depression Visibility Wind Speed Wind Dir Waves Ship Positions

Frisium

Last reported at 2018-Aug-14 06:30 UTC. Time now 2018-Aug-14 06:58 UTC.
Position N 43°35' E 028°45'.

Length 87 m; draft 3.7 m.

Type: Cargo ship. MMSI: 245824000.

Date/timePositionNaut miles runAvg speedWind from/ knotsBaromVisibWave heightAir tempDewpointWater temp
2018-Aug-14 06:30N 43°35' E 028°45'5 9.5
2018-Aug-14 05:58N 43°30' E 028°48'5 9.6
2018-Aug-14 05:29N 43°26' E 028°50'5 9.5
2018-Aug-14 05:00N 43°21' E 028°51'5 9.4
2018-Aug-14 04:30N 43°16' E 028°52'5 9.4
2018-Aug-14 04:00N 43°12' E 028°53'5 9.3
2018-Aug-14 03:30N 43°07' E 028°54'5 9.2
2018-Aug-14 03:00N 43°03' E 028°54'5 9.2
2018-Aug-14 02:30N 42°58' E 028°55'5 9.2
2018-Aug-14 02:00N 42°54' E 028°56'6 9.2
2018-Aug-14 01:18N 42°47' E 028°57'  
2018-Aug-05 13:12N 36°47' E 001°23'2 9.6
2018-Aug-05 12:59N 36°47' E 001°20'5 9.6
2018-Aug-05 12:30N 36°47' E 001°14'  
Track history (hours):
 
Tides and Currents Weather Stations Pressure Air Temp Water Temp Dewpoint Dewpoint Depression Visibility Wind Speed Wind Dir Waves Ship Positions

Frisium

Last reported at 2018-Aug-14 06:30 UTC. Time now 2018-Aug-14 06:58 UTC.
Position N 43°35' E 028°45'.

Length 87 m; draft 3.7 m.

Type: Cargo ship. MMSI: 245824000.

Date/timePositionNaut miles runAvg speedWind from/ knotsBaromVisibWave heightAir tempDewpointWater temp
2018-Aug-14 06:30N 43°35' E 028°45'5 9.5
2018-Aug-14 05:58N 43°30' E 028°48'5 9.6
2018-Aug-14 05:29N 43°26' E 028°50'5 9.5
2018-Aug-14 05:00N 43°21' E 028°51'5 9.4
2018-Aug-14 04:30N 43°16' E 028°52'5 9.4
2018-Aug-14 04:00N 43°12' E 028°53'5 9.3
2018-Aug-14 03:30N 43°07' E 028°54'5 9.2
2018-Aug-14 03:00N 43°03' E 028°54'5 9.2
2018-Aug-14 02:30N 42°58' E 028°55'5 9.2
2018-Aug-14 02:00N 42°54' E 028°56'6 9.2
2018-Aug-14 01:18N 42°47' E 028°57'  
2018-Aug-05 13:12N 36°47' E 001°23'2 9.6
2018-Aug-05 12:59N 36°47' E 001°20'5 9.6
2018-Aug-05 12:30N 36°47' E 001°14'  

Dump ship's entire track history